createdAt,value
2023-01-27T00:01:14.719Z,40.57
2023-01-27T00:03:41.481Z,36.73
2023-01-27T00:06:12.094Z,38.57
2023-01-27T00:08:39.132Z,35.47
2023-01-27T00:11:24.614Z,36.50
2023-01-27T00:13:51.409Z,36.97
2023-01-27T00:16:20.481Z,35.20
2023-01-27T00:18:47.244Z,39.77
2023-01-27T00:21:32.706Z,36.53
2023-01-27T00:24:18.075Z,34.83
2023-01-27T00:26:44.919Z,36.63
2023-01-27T00:29:11.721Z,37.57
2023-01-27T00:31:59.237Z,38.87
2023-01-27T00:34:26.061Z,35.40
2023-01-27T00:36:52.865Z,35.57
2023-01-27T00:39:19.669Z,34.10
2023-01-27T00:41:48.614Z,35.20
2023-01-27T00:44:15.462Z,35.53
2023-01-27T00:46:44.740Z,33.77
2023-01-27T00:49:14.213Z,31.70
2023-01-27T00:51:41.700Z,36.03
2023-01-27T00:54:08.599Z,38.30
2023-01-27T00:56:35.517Z,34.67
2023-01-27T00:59:04.695Z,35.53
2023-01-27T01:01:31.618Z,35.07
2023-01-27T01:03:58.964Z,37.53
2023-01-27T01:06:25.829Z,34.67
2023-01-27T01:08:54.801Z,36.43
2023-01-27T01:11:21.601Z,38.40
2023-01-27T01:13:50.644Z,31.93
2023-01-27T01:16:21.143Z,32.97
2023-01-27T01:18:48.186Z,37.97
2023-01-27T01:21:15.003Z,36.00
2023-01-27T01:23:42.609Z,29.03
2023-01-27T01:26:13.014Z,27.70
2023-01-27T01:28:39.872Z,27.13
2023-01-27T01:31:14.818Z,27.60
2023-01-27T01:33:43.938Z,29.40
2023-01-27T01:36:15.364Z,31.13
2023-01-27T01:38:42.144Z,30.93
2023-01-27T01:41:14.703Z,31.70
2023-01-27T01:43:43.945Z,33.50
2023-01-27T01:46:11.279Z,34.10
2023-01-27T01:48:49.960Z,34.90
2023-01-27T01:51:21.862Z,37.23
2023-01-27T01:53:52.517Z,33.83
2023-01-27T01:56:28.828Z,40.17
2023-01-27T01:58:55.913Z,38.77
2023-01-27T02:01:24.962Z,42.53
2023-01-27T02:03:55.101Z,35.73
2023-01-27T02:06:21.968Z,34.87
2023-01-27T02:08:49.204Z,34.73
2023-01-27T02:11:16.011Z,39.47
2023-01-27T02:13:42.794Z,38.93
2023-01-27T02:16:10.300Z,33.13
2023-01-27T02:18:38.858Z,33.03
2023-01-27T02:21:10.072Z,34.10
2023-01-27T02:23:51.700Z,31.73
2023-01-27T02:26:23.843Z,26.00
2023-01-27T02:29:03.072Z,26.20
2023-01-27T02:31:29.943Z,25.40
2023-01-27T02:34:04.865Z,28.10
2023-01-27T02:36:32.939Z,28.50
2023-01-27T02:39:02.850Z,26.53
2023-01-27T02:41:49.749Z,29.00
2023-01-27T02:44:16.528Z,25.50
2023-01-27T02:46:45.688Z,29.00
2023-01-27T02:49:12.466Z,24.70
2023-01-27T02:51:39.549Z,25.60
2023-01-27T02:54:06.561Z,28.63
2023-01-27T02:56:38.347Z,26.43
2023-01-27T02:59:05.154Z,27.20
2023-01-27T03:01:32.836Z,29.37
2023-01-27T03:03:59.924Z,29.47
2023-01-27T03:06:28.973Z,28.63
2023-01-27T03:08:55.808Z,30.97
2023-01-27T03:11:41.314Z,37.43
2023-01-27T03:14:08.697Z,33.83
2023-01-27T03:16:54.390Z,33.40
2023-01-27T03:19:21.160Z,32.43
2023-01-27T03:21:51.302Z,29.37
2023-01-27T03:24:21.420Z,30.30
2023-01-27T03:26:48.353Z,40.60
2023-01-27T03:29:33.607Z,36.77
2023-01-27T03:32:00.437Z,29.77
2023-01-27T03:34:29.431Z,27.70
2023-01-27T03:37:14.880Z,30.03
2023-01-27T03:40:00.440Z,27.90
2023-01-27T03:42:46.042Z,28.90
2023-01-27T03:45:31.663Z,27.77
2023-01-27T03:47:59.586Z,32.83
2023-01-27T03:50:37.276Z,28.23
2023-01-27T03:53:05.156Z,32.33
2023-01-27T03:55:32.493Z,31.43
2023-01-27T03:58:19.933Z,31.07
2023-01-27T04:00:51.495Z,31.93
2023-01-27T04:03:39.855Z,32.47
2023-01-27T04:06:29.551Z,33.10
2023-01-27T04:08:57.405Z,36.73
2023-01-27T04:11:42.883Z,33.37
2023-01-27T04:14:09.998Z,34.50
2023-01-27T04:16:37.114Z,36.13
2023-01-27T04:19:07.977Z,37.00
2023-01-27T04:21:37.357Z,34.57
2023-01-27T04:24:04.627Z,31.93
2023-01-27T04:26:34.903Z,34.10
2023-01-27T04:29:02.691Z,32.17
2023-01-27T04:31:29.729Z,32.60
2023-01-27T04:33:56.620Z,37.97
2023-01-27T04:36:23.429Z,36.23
2023-01-27T04:38:52.460Z,38.60
2023-01-27T04:41:19.256Z,35.73
2023-01-27T04:43:46.201Z,38.27
2023-01-27T04:46:12.989Z,36.67
2023-01-27T04:48:41.970Z,38.17
2023-01-27T04:51:08.808Z,35.97
2023-01-27T04:53:35.580Z,38.03
2023-01-27T04:56:07.783Z,40.50
2023-01-27T04:58:34.551Z,38.07
2023-01-27T05:01:01.369Z,39.27
2023-01-27T05:03:28.139Z,44.37
2023-01-27T05:05:57.170Z,43.63
2023-01-27T05:08:23.943Z,48.40
2023-01-27T05:10:52.553Z,59.53
2023-01-27T05:13:19.563Z,57.03
2023-01-27T05:15:46.479Z,64.03
2023-01-27T05:18:13.331Z,57.80
2023-01-27T05:20:40.123Z,60.97
2023-01-27T05:23:25.707Z,61.23
2023-01-27T05:25:55.427Z,60.20
2023-01-27T05:28:22.287Z,69.33
2023-01-27T05:30:49.189Z,67.77
2023-01-27T05:33:16.000Z,70.37
2023-01-27T05:35:47.452Z,74.43
2023-01-27T05:38:14.240Z,73.10
2023-01-27T05:40:43.395Z,76.50
2023-01-27T05:43:15.032Z,78.63
2023-01-27T05:45:44.027Z,79.17
2023-01-27T05:48:13.252Z,81.93
2023-01-27T05:50:40.159Z,82.37
2023-01-27T05:53:06.910Z,79.90
2023-01-27T05:55:36.157Z,80.87
2023-01-27T05:58:05.336Z,82.30
2023-01-27T06:00:35.029Z,84.83
2023-01-27T06:03:01.871Z,80.00
2023-01-27T06:05:28.719Z,80.17
2023-01-27T06:07:57.917Z,80.47
2023-01-27T06:10:24.692Z,79.93
2023-01-27T06:12:51.488Z,87.47
2023-01-27T06:15:18.287Z,93.23
2023-01-27T06:17:45.077Z,82.47
2023-01-27T06:20:12.089Z,82.70
2023-01-27T06:22:38.880Z,86.37
2023-01-27T06:25:06.153Z,89.10
2023-01-27T06:27:35.134Z,86.27
2023-01-27T06:30:01.968Z,85.43
2023-01-27T06:32:28.776Z,91.73
2023-01-27T06:34:55.612Z,81.30
2023-01-27T06:37:22.399Z,85.23
2023-01-27T06:39:49.136Z,85.10
2023-01-27T06:42:18.185Z,86.93
2023-01-27T06:44:44.991Z,90.97
2023-01-27T06:47:11.849Z,90.13
2023-01-27T06:49:38.796Z,85.30
2023-01-27T06:52:05.572Z,86.30
2023-01-27T06:54:34.968Z,94.63
2023-01-27T06:57:01.755Z,86.63
2023-01-27T06:59:28.640Z,83.93
2023-01-27T07:01:55.430Z,83.83
2023-01-27T07:04:22.401Z,84.97
2023-01-27T07:06:49.154Z,84.87
2023-01-27T07:09:16.314Z,85.00
2023-01-27T07:11:43.145Z,91.07
2023-01-27T07:14:10.701Z,83.63
2023-01-27T07:16:37.690Z,80.27
2023-01-27T07:19:04.744Z,82.67
2023-01-27T07:21:31.480Z,77.53
2023-01-27T07:23:58.257Z,77.83
2023-01-27T07:26:27.429Z,73.57
2023-01-27T07:28:55.789Z,72.50
2023-01-27T07:31:23.106Z,72.13
2023-01-27T07:33:50.041Z,68.70
2023-01-27T07:36:17.239Z,76.30
2023-01-27T07:38:44.032Z,72.03
2023-01-27T07:41:12.921Z,71.73
2023-01-27T07:43:41.833Z,67.87
2023-01-27T07:46:08.620Z,65.93
2023-01-27T07:48:35.423Z,68.57
2023-01-27T07:51:02.227Z,65.20
2023-01-27T07:53:31.233Z,69.60
2023-01-27T07:56:02.297Z,61.70
2023-01-27T07:58:29.114Z,73.47
2023-01-27T08:00:55.927Z,64.00
2023-01-27T08:03:27.367Z,62.73
2023-01-27T08:05:54.256Z,60.80
2023-01-27T08:08:21.020Z,62.17
2023-01-27T08:10:49.377Z,68.20
2023-01-27T08:13:18.460Z,62.27
2023-01-27T08:15:45.756Z,51.03
2023-01-27T08:18:12.504Z,55.30
2023-01-27T08:20:39.313Z,47.97
2023-01-27T08:23:06.081Z,39.57
2023-01-27T08:25:32.838Z,41.70
2023-01-27T08:27:59.613Z,49.73
2023-01-27T08:30:26.785Z,49.60
2023-01-27T08:32:53.750Z,47.80
2023-01-27T08:35:20.598Z,42.70
2023-01-27T08:37:50.360Z,46.03
2023-01-27T08:40:20.549Z,42.53
2023-01-27T08:42:49.601Z,41.40
2023-01-27T08:45:16.381Z,43.53
2023-01-27T08:47:43.224Z,40.33
2023-01-27T08:50:10.742Z,39.93
2023-01-27T08:52:37.599Z,44.73
2023-01-27T08:55:06.791Z,42.37
2023-01-27T08:57:37.000Z,44.13
2023-01-27T09:00:05.235Z,46.87
2023-01-27T09:02:34.355Z,40.47
2023-01-27T09:05:01.206Z,39.63
2023-01-27T09:07:30.507Z,40.47
2023-01-27T09:10:12.629Z,37.40
2023-01-27T09:12:41.251Z,39.93
2023-01-27T09:15:08.496Z,31.83
2023-01-27T09:17:35.298Z,34.57
2023-01-27T09:20:02.079Z,32.33
2023-01-27T09:22:28.906Z,36.13
2023-01-27T09:24:58.350Z,35.43
2023-01-27T09:27:38.690Z,38.93
2023-01-27T09:30:07.286Z,40.10
2023-01-27T09:32:34.083Z,35.77
2023-01-27T09:35:00.864Z,34.73
2023-01-27T09:37:29.949Z,35.10
2023-01-27T09:39:58.676Z,37.90
2023-01-27T09:42:28.463Z,35.97
2023-01-27T09:45:29.031Z,32.70
2023-01-27T09:48:23.632Z,34.90
2023-01-27T09:50:58.042Z,34.20
2023-01-27T09:53:32.629Z,38.73
2023-01-27T09:56:12.384Z,43.07
2023-01-27T09:59:05.087Z,36.73
2023-01-27T10:01:50.087Z,35.13
2023-01-27T10:04:51.696Z,39.47
2023-01-27T10:07:26.976Z,40.07
2023-01-27T10:10:09.269Z,40.83
2023-01-27T10:12:57.518Z,45.53
2023-01-27T10:15:45.929Z,40.03
2023-01-27T10:19:01.806Z,44.43
2023-01-27T10:21:39.008Z,42.37
2023-01-27T10:24:50.959Z,41.97
2023-01-27T10:27:22.914Z,38.30
2023-01-27T10:30:25.466Z,43.47
2023-01-27T10:33:14.055Z,43.60
2023-01-27T10:35:53.720Z,36.50
2023-01-27T10:38:32.256Z,40.57
2023-01-27T10:41:23.047Z,38.93
2023-01-27T10:44:04.901Z,36.93
2023-01-27T10:46:40.181Z,42.77
2023-01-27T10:49:10.927Z,35.23
2023-01-27T10:51:41.731Z,36.37
2023-01-27T10:54:12.431Z,33.67
2023-01-27T10:56:59.918Z,37.53
2023-01-27T11:00:11.189Z,36.97
2023-01-27T11:03:03.226Z,35.97
2023-01-27T11:05:44.980Z,41.13
2023-01-27T11:08:17.414Z,36.67
2023-01-27T11:11:07.600Z,36.03
2023-01-27T11:13:34.475Z,38.27
2023-01-27T11:16:01.974Z,38.73
2023-01-27T11:18:32.761Z,35.93
2023-01-27T11:21:06.085Z,33.87
2023-01-27T11:23:48.992Z,37.80
2023-01-27T11:26:40.377Z,35.37
2023-01-27T11:29:19.048Z,37.93
2023-01-27T11:32:07.141Z,37.60
2023-01-27T11:34:54.667Z,37.20
2023-01-27T11:37:29.611Z,39.10
2023-01-27T11:39:56.418Z,41.27
2023-01-27T11:42:31.272Z,38.10
2023-01-27T11:45:01.140Z,42.70
2023-01-27T11:47:33.648Z,47.43
2023-01-27T11:50:00.545Z,45.57
2023-01-27T11:52:29.080Z,50.80
2023-01-27T11:55:10.996Z,51.93
2023-01-27T11:57:38.330Z,54.20
2023-01-27T12:00:12.702Z,53.40
2023-01-27T12:02:50.149Z,51.17
2023-01-27T12:05:18.977Z,52.40
2023-01-27T12:07:55.470Z,51.97
2023-01-27T12:10:25.155Z,51.63
2023-01-27T12:12:51.974Z,50.53
2023-01-27T12:15:18.886Z,51.20
2023-01-27T12:17:53.951Z,50.63
2023-01-27T12:20:38.022Z,52.03
2023-01-27T12:23:40.294Z,44.90
2023-01-27T12:26:08.106Z,43.97
2023-01-27T12:28:46.203Z,49.17
2023-01-27T12:31:28.023Z,46.33
2023-01-27T12:34:06.795Z,45.60
2023-01-27T12:36:38.523Z,54.77
2023-01-27T12:39:05.319Z,60.03
2023-01-27T12:41:32.282Z,59.73
2023-01-27T12:44:08.036Z,57.57
2023-01-27T12:46:37.142Z,59.13
2023-01-27T12:49:11.415Z,64.17
2023-01-27T12:51:50.679Z,57.40
2023-01-27T12:54:26.080Z,63.00
2023-01-27T12:56:55.881Z,60.47
2023-01-27T12:59:27.886Z,69.27
2023-01-27T13:02:02.160Z,66.20
2023-01-27T13:04:31.517Z,61.73
2023-01-27T13:07:08.600Z,67.70
2023-01-27T13:10:00.192Z,58.27
2023-01-27T13:12:33.002Z,60.73
2023-01-27T13:15:23.104Z,61.50
2023-01-27T13:17:52.330Z,60.90
2023-01-27T13:20:49.759Z,58.93
2023-01-27T13:23:21.706Z,59.67
2023-01-27T13:26:02.245Z,64.10
2023-01-27T13:28:46.066Z,61.13
2023-01-27T13:31:23.459Z,66.57
2023-01-27T13:33:54.845Z,71.67
2023-01-27T13:36:27.845Z,72.53
2023-01-27T13:39:00.531Z,70.70
2023-01-27T13:42:05.851Z,69.07
2023-01-27T13:44:45.663Z,73.00
2023-01-27T13:47:16.785Z,78.77
2023-01-27T13:49:48.590Z,72.67
2023-01-27T13:52:15.367Z,74.57
2023-01-27T13:54:44.680Z,75.80
2023-01-27T13:57:26.473Z,76.47
2023-01-27T14:00:14.151Z,69.40
2023-01-27T14:03:04.100Z,76.37
2023-01-27T14:05:36.821Z,63.40
2023-01-27T14:08:36.906Z,67.20
2023-01-27T14:11:20.097Z,72.70
2023-01-27T14:14:03.465Z,78.47
2023-01-27T14:16:56.635Z,76.37
2023-01-27T14:19:53.958Z,81.13
2023-01-27T14:22:33.110Z,77.97
2023-01-27T14:25:12.552Z,74.57
2023-01-27T14:27:45.971Z,80.67
2023-01-27T14:30:20.981Z,82.90
2023-01-27T14:33:09.909Z,77.00
2023-01-27T14:35:41.793Z,71.60
2023-01-27T14:38:19.765Z,78.63
2023-01-27T14:40:55.287Z,81.07
2023-01-27T14:43:38.456Z,77.60
2023-01-27T14:46:27.344Z,82.80
2023-01-27T14:49:15.844Z,81.07
2023-01-27T14:51:50.731Z,82.93
2023-01-27T14:54:26.366Z,76.17
2023-01-27T14:57:10.157Z,79.60
2023-01-27T14:59:58.911Z,73.37
2023-01-27T15:02:28.425Z,81.50
2023-01-27T15:05:03.693Z,77.03
2023-01-27T15:07:42.157Z,77.57
2023-01-27T15:10:44.278Z,76.27
2023-01-27T15:13:40.279Z,78.37
2023-01-27T15:16:34.801Z,87.43
2023-01-27T15:19:36.541Z,85.93
2023-01-27T15:22:22.370Z,81.80
2023-01-27T15:24:51.857Z,86.63
2023-01-27T15:27:18.705Z,86.23
2023-01-27T15:29:45.460Z,83.20
2023-01-27T15:32:18.566Z,89.33
2023-01-27T15:34:46.298Z,91.50
2023-01-27T15:37:20.152Z,88.07
2023-01-27T15:40:05.684Z,81.60
2023-01-27T15:43:05.368Z,83.60
2023-01-27T15:45:36.228Z,90.23
2023-01-27T15:48:06.022Z,86.63
2023-01-27T15:50:33.736Z,91.37
2023-01-27T15:53:14.138Z,91.57
2023-01-27T15:55:51.589Z,96.30
2023-01-27T15:58:37.930Z,88.33
2023-01-27T16:01:05.736Z,93.97
2023-01-27T16:03:35.452Z,96.10
2023-01-27T16:06:12.245Z,95.40
2023-01-27T16:08:49.742Z,91.63
2023-01-27T16:11:30.957Z,91.10
2023-01-27T16:14:13.227Z,94.17
2023-01-27T16:16:47.330Z,103.63
2023-01-27T16:19:16.331Z,99.20
2023-01-27T16:21:57.514Z,107.60
2023-01-27T16:24:46.701Z,106.70
2023-01-27T16:27:21.792Z,98.87
2023-01-27T16:30:00.899Z,97.97
2023-01-27T16:32:33.376Z,99.10
2023-01-27T16:35:02.043Z,100.97
2023-01-27T16:37:29.416Z,104.13
2023-01-27T16:40:06.931Z,98.13
2023-01-27T16:42:37.112Z,103.97
2023-01-27T16:45:16.572Z,100.03
2023-01-27T16:48:00.062Z,108.97
2023-01-27T16:50:40.188Z,106.60
2023-01-27T16:53:20.143Z,103.73
2023-01-27T16:56:03.805Z,98.10
2023-01-27T16:58:43.761Z,99.17
2023-01-27T17:01:42.375Z,97.57
2023-01-27T17:04:19.816Z,90.03
2023-01-27T17:06:48.323Z,95.23
2023-01-27T17:09:22.327Z,90.90
2023-01-27T17:11:54.219Z,99.60
2023-01-27T17:14:30.681Z,97.33
2023-01-27T17:17:02.958Z,99.17
2023-01-27T17:19:36.400Z,91.30
2023-01-27T17:22:30.197Z,92.07
2023-01-27T17:25:01.281Z,95.10
2023-01-27T17:27:36.222Z,97.63
2023-01-27T17:30:19.422Z,97.23
2023-01-27T17:32:47.084Z,97.93
2023-01-27T17:35:28.589Z,100.97
2023-01-27T17:38:20.040Z,97.97
2023-01-27T17:40:48.355Z,102.93
2023-01-27T17:43:40.295Z,100.27
2023-01-27T17:46:21.018Z,111.90
2023-01-27T17:49:27.994Z,103.17
2023-01-27T17:51:55.835Z,116.90
2023-01-27T17:54:35.536Z,106.90
2023-01-27T17:57:09.399Z,108.27
2023-01-27T17:59:36.961Z,103.37
2023-01-27T18:02:08.176Z,104.50
2023-01-27T18:04:38.658Z,103.10
2023-01-27T18:07:05.482Z,112.30
2023-01-27T18:09:32.233Z,114.07
2023-01-27T18:12:07.269Z,108.57
2023-01-27T18:14:34.762Z,105.63
2023-01-27T18:17:24.534Z,110.27
2023-01-27T18:19:52.040Z,112.27
2023-01-27T18:22:21.939Z,109.33
2023-01-27T18:25:01.565Z,116.43
2023-01-27T18:27:30.450Z,114.60
2023-01-27T18:30:13.036Z,108.00
2023-01-27T18:32:41.730Z,103.27
2023-01-27T18:35:28.348Z,111.90
2023-01-27T18:37:59.905Z,114.30
2023-01-27T18:40:34.373Z,106.03
2023-01-27T18:43:02.422Z,107.73
2023-01-27T18:45:31.173Z,117.03
2023-01-27T18:47:59.515Z,111.00
2023-01-27T18:50:29.045Z,103.93
2023-01-27T18:52:55.894Z,103.87
2023-01-27T18:55:29.432Z,102.17
2023-01-27T18:57:57.646Z,98.13
2023-01-27T19:00:34.337Z,99.57
2023-01-27T19:03:05.650Z,106.97
2023-01-27T19:05:33.552Z,103.03
2023-01-27T19:08:03.004Z,102.67
2023-01-27T19:10:31.623Z,105.93
2023-01-27T19:12:59.729Z,109.27
2023-01-27T19:15:27.184Z,98.00
2023-01-27T19:17:57.404Z,107.00
2023-01-27T19:20:28.355Z,111.03
2023-01-27T19:22:55.577Z,112.50
2023-01-27T19:25:22.842Z,96.53
2023-01-27T19:27:59.805Z,99.00
2023-01-27T19:30:39.100Z,100.93
2023-01-27T19:33:32.623Z,89.20
2023-01-27T19:36:04.244Z,92.90
2023-01-27T19:38:31.165Z,89.87
2023-01-27T19:40:57.925Z,94.83
2023-01-27T19:43:24.759Z,92.63
2023-01-27T19:45:54.011Z,93.43
2023-01-27T19:48:22.781Z,95.13
2023-01-27T19:50:49.833Z,91.70
2023-01-27T19:53:19.646Z,92.60
2023-01-27T19:55:49.273Z,92.73
2023-01-27T19:58:25.386Z,94.67
2023-01-27T20:00:53.214Z,86.43
2023-01-27T20:03:23.105Z,85.57
2023-01-27T20:05:49.918Z,88.13
2023-01-27T20:08:17.987Z,94.93
2023-01-27T20:10:44.883Z,90.63
2023-01-27T20:13:19.094Z,89.40
2023-01-27T20:15:45.995Z,87.93
2023-01-27T20:18:16.728Z,80.37
2023-01-27T20:20:47.211Z,86.27
2023-01-27T20:23:21.736Z,88.70
2023-01-27T20:25:53.182Z,85.50
2023-01-27T20:28:19.947Z,84.47
2023-01-27T20:30:46.765Z,84.00
2023-01-27T20:33:16.030Z,85.97
2023-01-27T20:35:45.205Z,82.50
2023-01-27T20:38:12.097Z,86.87
2023-01-27T20:40:38.873Z,84.17
2023-01-27T20:43:05.682Z,84.33
2023-01-27T20:45:35.208Z,88.70
2023-01-27T20:48:02.063Z,89.23
2023-01-27T20:50:31.045Z,83.67
2023-01-27T20:52:57.858Z,82.30
2023-01-27T20:55:27.236Z,83.50
2023-01-27T20:57:56.207Z,81.27
2023-01-27T21:00:23.295Z,77.57
2023-01-27T21:02:52.291Z,65.80
2023-01-27T21:05:21.307Z,76.33
2023-01-27T21:07:48.103Z,66.30
2023-01-27T21:10:14.984Z,62.63
2023-01-27T21:12:41.762Z,59.03
2023-01-27T21:15:09.933Z,64.43
2023-01-27T21:17:39.401Z,62.70
2023-01-27T21:20:06.802Z,59.47
2023-01-27T21:22:34.622Z,60.73
2023-01-27T21:25:01.561Z,63.10
2023-01-27T21:27:28.354Z,61.43
2023-01-27T21:29:55.195Z,66.37
2023-01-27T21:32:21.972Z,64.00
2023-01-27T21:34:48.742Z,67.03
2023-01-27T21:37:15.569Z,67.73
2023-01-27T21:39:44.813Z,62.77
2023-01-27T21:42:14.709Z,61.30
2023-01-27T21:45:02.396Z,61.07
2023-01-27T21:47:29.213Z,61.10
2023-01-27T21:50:02.150Z,59.83
2023-01-27T21:52:45.441Z,61.70
2023-01-27T21:55:24.400Z,59.40
2023-01-27T21:57:52.118Z,60.80
2023-01-27T22:00:26.786Z,63.63
2023-01-27T22:03:00.861Z,58.13
2023-01-27T22:05:33.520Z,61.17
2023-01-27T22:08:02.652Z,58.50
2023-01-27T22:10:30.089Z,57.53
2023-01-27T22:13:01.562Z,56.83
2023-01-27T22:15:31.173Z,63.83
2023-01-27T22:17:58.391Z,60.93
2023-01-27T22:20:27.618Z,63.87
2023-01-27T22:22:59.055Z,62.93
2023-01-27T22:25:27.381Z,59.13
2023-01-27T22:28:00.012Z,62.13
2023-01-27T22:30:26.786Z,60.87
2023-01-27T22:32:56.024Z,58.77
2023-01-27T22:35:22.806Z,61.97
2023-01-27T22:37:49.640Z,61.03
2023-01-27T22:40:16.776Z,61.27
2023-01-27T22:42:47.439Z,63.30
2023-01-27T22:45:14.423Z,61.57
2023-01-27T22:47:41.333Z,60.67
2023-01-27T22:50:13.563Z,65.57
2023-01-27T22:52:40.390Z,64.77
2023-01-27T22:55:08.621Z,63.97
2023-01-27T22:57:35.490Z,60.80
2023-01-27T23:00:02.357Z,62.63
2023-01-27T23:02:29.862Z,62.10
2023-01-27T23:04:57.431Z,62.63
2023-01-27T23:07:24.480Z,63.20
2023-01-27T23:09:53.765Z,58.03
2023-01-27T23:12:20.658Z,64.80
2023-01-27T23:14:49.883Z,62.37
2023-01-27T23:17:16.676Z,62.20
2023-01-27T23:19:43.485Z,59.30
2023-01-27T23:22:14.897Z,93.37
2023-01-27T23:24:43.903Z,99.27
2023-01-27T23:27:10.811Z,71.07
2023-01-27T23:29:37.600Z,63.60
2023-01-27T23:32:04.455Z,67.97
2023-01-27T23:34:35.617Z,61.93
2023-01-27T23:37:04.815Z,57.23
2023-01-27T23:39:31.630Z,58.43
2023-01-27T23:41:58.462Z,58.90
2023-01-27T23:44:27.371Z,61.70
2023-01-27T23:46:54.140Z,60.17
2023-01-27T23:49:20.983Z,69.17
2023-01-27T23:51:47.805Z,63.90
2023-01-27T23:54:14.583Z,65.73
2023-01-27T23:56:41.434Z,59.83
2023-01-27T23:59:14.376Z,61.87
